createdAt,value
2019-03-04T05:53:01.911Z,67.00
2019-03-04T05:55:34.756Z,72.30
2019-03-04T06:04:12.788Z,78.50
2019-03-04T06:24:40.988Z,85.30
2019-03-04T06:47:20.890Z,85.80
2019-03-04T08:38:31.345Z,83.20
2019-03-04T08:41:28.379Z,84.30
2019-03-04T08:44:10.142Z,84.80
2019-03-04T08:46:39.342Z,85.70
2019-03-04T08:49:08.859Z,86.30
2019-03-04T08:51:38.386Z,89.90
2019-03-04T08:54:10.323Z,88.20
2019-03-04T08:56:40.496Z,87.70
2019-03-04T08:59:10.877Z,87.90
2019-03-04T09:01:41.057Z,87.50
2019-03-04T09:04:10.550Z,87.50
2019-03-04T09:06:43.408Z,88.30
2019-03-04T09:09:26.514Z,88.00
2019-03-04T09:11:57.501Z,88.30
2019-03-04T09:14:26.808Z,88.60
2019-03-04T09:16:56.239Z,88.00
2019-03-04T09:22:21.253Z,88.20
2019-03-04T09:24:50.697Z,88.30
2019-03-04T09:27:20.220Z,88.00
2019-03-04T09:33:00.624Z,88.30
2019-03-04T09:35:30.008Z,88.40
2019-03-04T09:37:59.392Z,88.50
2019-03-04T09:40:31.684Z,88.50
2019-03-04T09:43:02.616Z,88.50
2019-03-04T09:45:38.766Z,88.60
2019-03-04T09:48:03.112Z,88.70
2019-03-04T09:50:32.697Z,88.70
2019-03-04T09:53:02.136Z,89.20
2019-03-04T09:55:31.548Z,89.00
2019-03-04T09:58:00.886Z,89.00
2019-03-04T10:00:52.319Z,89.30
2019-03-04T10:03:50.433Z,89.80
2019-03-04T10:06:33.318Z,89.00
2019-03-04T10:09:22.395Z,90.00
2019-03-04T10:12:12.975Z,89.50
2019-03-04T10:15:12.694Z,89.90
2019-03-04T10:18:07.780Z,89.10
2019-03-04T10:21:01.627Z,89.50
2019-03-04T10:23:41.752Z,89.50
2019-03-04T10:26:45.135Z,89.70
2019-03-04T10:29:42.898Z,89.50
2019-03-04T10:32:36.281Z,88.70
2019-03-04T10:35:32.859Z,88.90
2019-03-04T10:38:22.177Z,88.50
2019-03-04T10:41:37.824Z,88.00
2019-03-04T10:44:52.617Z,87.70
2019-03-04T10:47:22.128Z,87.60
2019-03-04T10:50:12.673Z,87.70
2019-03-04T10:52:47.077Z,87.70
2019-03-04T10:55:26.036Z,87.20
2019-03-04T10:58:01.642Z,86.70
2019-03-04T11:00:31.175Z,86.20
2019-03-04T11:06:20.746Z,85.30
2019-03-04T11:18:32.772Z,85.50
2019-03-04T11:21:03.570Z,84.00
2019-03-04T11:23:33.069Z,84.00
2019-03-04T11:26:02.501Z,84.10
2019-03-04T11:28:31.913Z,83.30
2019-03-04T11:31:09.928Z,82.20
2019-03-04T11:33:50.963Z,79.00
2019-03-04T11:36:20.681Z,78.30
2019-03-04T11:38:55.176Z,79.40
2019-03-04T11:41:30.681Z,77.80
2019-03-04T11:44:00.214Z,78.40
2019-03-04T11:46:29.903Z,77.00
2019-03-04T11:48:59.540Z,78.30
2019-03-04T11:51:29.204Z,76.30
2019-03-04T11:54:20.714Z,76.80
2019-03-04T12:09:13.443Z,74.10
2019-03-04T12:14:39.138Z,72.20
2019-03-04T12:17:18.357Z,74.30
2019-03-04T12:33:42.883Z,67.40
2019-03-04T12:42:39.055Z,63.70
2019-03-04T12:54:20.820Z,62.00
2019-03-04T12:57:53.967Z,63.60
2019-03-04T13:02:38.203Z,61.40
2019-03-04T13:12:05.251Z,60.00
2019-03-04T13:14:40.256Z,62.50
2019-03-04T13:23:25.303Z,62.60
2019-03-04T13:27:23.361Z,63.10
2019-03-04T13:28:38.727Z,63.40
2019-03-04T13:31:18.017Z,64.10
2019-03-04T17:37:40.486Z,69.10
2019-03-04T17:53:33.266Z,70.90
2019-03-04T18:09:15.525Z,71.20
2019-03-04T19:04:03.844Z,73.80
2019-03-04T19:06:56.784Z,74.80
2019-03-04T19:09:44.989Z,74.90
2019-03-04T19:15:56.528Z,75.30
2019-03-04T19:21:28.016Z,76.80
2019-03-04T19:38:45.686Z,78.10
2019-03-04T19:44:58.148Z,79.70
2019-03-04T20:00:44.107Z,80.90
2019-03-04T20:09:09.822Z,80.50
2019-03-04T20:11:39.178Z,81.00
2019-03-04T20:14:08.562Z,81.30
2019-03-04T20:16:38.024Z,81.20
2019-03-04T20:19:07.492Z,81.80
2019-03-04T20:21:38.318Z,81.60
2019-03-04T20:24:28.402Z,81.10
2019-03-04T20:30:25.632Z,81.10
2019-03-04T20:42:04.652Z,82.80
2019-03-04T20:47:12.444Z,83.50
2019-03-04T21:54:07.300Z,80.90
